sensor_id;sensor_type;location;lat;lon;timestamp;pressure;altitude;pressure_sealevel;temperature;humidity
53868;BME280;41577;47.470;19.080;2023-04-07T00:00:06;99968.59;;;3.09;100.00
53868;BME280;41577;47.470;19.080;2023-04-07T00:00:25;99966.75;;;3.10;100.00
53868;BME280;41577;47.470;19.080;2023-04-07T00:00:38;99970.41;;;3.09;100.00
53868;BME280;41577;47.470;19.080;2023-04-07T00:00:51;99967.63;;;3.10;100.00
53868;BME280;41577;47.470;19.080;2023-04-07T00:01:04;99974.53;;;3.11;100.00
53868;BME280;41577;47.470;19.080;2023-04-07T00:01:16;99971.09;;;3.11;100.00
53868;BME280;41577;47.470;19.080;2023-04-07T00:01:28;99972.03;;;3.10;100.00
53868;BME280;41577;47.470;19.080;2023-04-07T00:01:41;99971.09;;;3.11;100.00
53868;BME280;41577;47.470;19.080;2023-04-07T00:01:53;99966.75;;;3.10;100.00
53868;BME280;41577;47.470;19.080;2023-04-07T00:02:06;99966.63;;;3.11;100.00
53868;BME280;41577;47.470;19.080;2023-04-07T00:02:18;99965.94;;;3.09;100.00
53868;BME280;41577;47.470;19.080;2023-04-07T00:02:31;99967.44;;;3.12;100.00
53868;BME280;41577;47.470;19.080;2023-04-07T00:02:43;99969.41;;;3.10;100.00
53868;BME280;41577;47.470;19.080;2023-04-07T00:02:56;99974.53;;;3.11;100.00
53868;BME280;41577;47.470;19.080;2023-04-07T00:03:09;99966.63;;;3.11;100.00
53868;BME280;41577;47.470;19.080;2023-04-07T00:03:21;99966.75;;;3.10;100.00
53868;BME280;41577;47.470;19.080;2023-04-07T00:03:34;99966.63;;;3.11;100.00
53868;BME280;41577;47.470;19.080;2023-04-07T00:03:47;99970.25;;;3.10;100.00
53868;BME280;41577;47.470;19.080;2023-04-07T00:03:59;99961.50;;;3.10;100.00
53868;BME280;41577;47.470;19.080;2023-04-07T00:04:12;99967.63;;;3.10;100.00
53868;BME280;41577;47.470;19.080;2023-04-07T00:04:24;99969.25;;;3.11;100.00
53868;BME280;41577;47.470;19.080;2023-04-07T00:04:37;99973.84;;;3.09;100.00
53868;BME280;41577;47.470;19.080;2023-04-07T00:04:49;99963.31;;;3.09;100.00
53868;BME280;41577;47.470;19.080;2023-04-07T00:05:02;99972.03;;;3.10;100.00
53868;BME280;41577;47.470;19.080;2023-04-07T00:05:14;99970.25;;;3.10;100.00
53868;BME280;41577;47.470;19.080;2023-04-07T00:05:28;99962.47;;;3.09;100.00
53868;BME280;41577;47.470;19.080;2023-04-07T00:05:41;99967.75;;;3.09;100.00
53868;BME280;41577;47.470;19.080;2023-04-07T00:05:53;99967.75;;;3.09;100.00
53868;BME280;41577;47.470;19.080;2023-04-07T00:06:06;99968.72;;;3.08;100.00
53868;BME280;41577;47.470;19.080;2023-04-07T00:06:18;99964.44;;;3.07;100.00
53868;BME280;41577;47.470;19.080;2023-04-07T00:06:31;99969.72;;;3.07;100.00
53868;BME280;41577;47.470;19.080;2023-04-07T00:06:43;99964.44;;;3.07;100.00
53868;BME280;41577;47.470;19.080;2023-04-07T00:06:56;99973.16;;;3.07;100.00
53868;BME280;41577;47.470;19.080;2023-04-07T00:07:08;99966.09;;;3.08;100.00
53868;BME280;41577;47.470;19.080;2023-04-07T00:07:20;99967.91;;;3.07;100.00
53868;BME280;41577;47.470;19.080;2023-04-07T00:07:33;99974.84;;;3.08;100.00
53868;BME280;41577;47.470;19.080;2023-04-07T00:08:04;99966.09;;;3.08;100.00
53868;BME280;41577;47.470;19.080;2023-04-07T00:08:16;99964.56;;;3.05;100.00
53868;BME280;41577;47.470;19.080;2023-04-07T00:08:28;99970.41;;;3.09;100.00
53868;BME280;41577;47.470;19.080;2023-04-07T00:08:41;99968.59;;;3.09;100.00
53868;BME280;41577;47.470;19.080;2023-04-07T00:08:53;99966.75;;;3.10;100.00
53868;BME280;41577;47.470;19.080;2023-04-07T00:09:05;99969.41;;;3.10;100.00
53868;BME280;41577;47.470;19.080;2023-04-07T00:09:18;99972.91;;;3.10;100.00
53868;BME280;41577;47.470;19.080;2023-04-07T00:09:30;99969.25;;;3.11;100.00
53868;BME280;41577;47.470;19.080;2023-04-07T00:09:43;99970.25;;;3.10;100.00
53868;BME280;41577;47.470;19.080;2023-04-07T00:09:55;99964.97;;;3.10;100.00
53868;BME280;41577;47.470;19.080;2023-04-07T00:10:08;99969.25;;;3.11;100.00
53868;BME280;41577;47.470;19.080;2023-04-07T00:10:21;99962.47;;;3.09;100.00
53868;BME280;41577;47.470;19.080;2023-04-07T00:10:33;99972.72;;;3.12;100.00
53868;BME280;41577;47.470;19.080;2023-04-07T00:10:46;99976.22;;;3.12;100.00
53868;BME280;41577;47.470;19.080;2023-04-07T00:10:58;99968.44;;;3.11;100.00
53868;BME280;41577;47.470;19.080;2023-04-07T00:11:11;99964.81;;;3.12;100.00
53868;BME280;41577;47.470;19.080;2023-04-07T00:11:24;99972.91;;;3.10;100.00
53868;BME280;41577;47.470;19.080;2023-04-07T00:11:36;99969.25;;;3.11;100.00
53868;BME280;41577;47.470;19.080;2023-04-07T00:11:49;99972.72;;;3.12;100.00
53868;BME280;41577;47.470;19.080;2023-04-07T00:12:01;99968.31;;;3.12;100.00
53868;BME280;41577;47.470;19.080;2023-04-07T00:12:13;99972.72;;;3.12;100.00
53868;BME280;41577;47.470;19.080;2023-04-07T00:12:26;99969.13;;;3.13;100.00
53868;BME280;41577;47.470;19.080;2023-04-07T00:12:38;99964.81;;;3.12;100.00
53868;BME280;41577;47.470;19.080;2023-04-07T00:12:50;99964.00;;;3.11;100.00
53868;BME280;41577;47.470;19.080;2023-04-07T00:13:02;99963.16;;;3.11;100.00
53868;BME280;41577;47.470;19.080;2023-04-07T00:13:14;99967.44;;;3.12;100.00
53868;BME280;41577;47.470;19.080;2023-04-07T00:13:27;99965.66;;;3.12;100.00
53868;BME280;41577;47.470;19.080;2023-04-07T00:13:41;99964.81;;;3.12;100.00
53868;BME280;41577;47.470;19.080;2023-04-07T00:13:53;99964.97;;;3.10;100.00
53868;BME280;41577;47.470;19.080;2023-04-07T00:14:06;99976.22;;;3.12;100.00
53868;BME280;41577;47.470;19.080;2023-04-07T00:14:18;99966.63;;;3.11;100.00
53868;BME280;41577;47.470;19.080;2023-04-07T00:14:30;99970.09;;;3.12;100.00
53868;BME280;41577;47.470;19.080;2023-04-07T00:14:43;99964.13;;;3.10;100.00
53868;BME280;41577;47.470;19.080;2023-04-07T00:14:56;99962.03;;;3.13;100.00
53868;BME280;41577;47.470;19.080;2023-04-07T00:15:09;99968.97;;;3.14;100.00
53868;BME280;41577;47.470;19.080;2023-04-07T00:15:21;99964.69;;;3.13;100.00
53868;BME280;41577;47.470;19.080;2023-04-07T00:15:33;99964.69;;;3.13;100.00
53868;BME280;41577;47.470;19.080;2023-04-07T00:15:46;99968.00;;;3.16;100.00
53868;BME280;41577;47.470;19.080;2023-04-07T00:15:58;99961.03;;;3.14;100.00
53868;BME280;41577;47.470;19.080;2023-04-07T00:16:11;99969.81;;;3.15;100.00
53868;BME280;41577;47.470;19.080;2023-04-07T00:16:23;99967.31;;;3.13;100.00
53868;BME280;41577;47.470;19.080;2023-04-07T00:16:38;99966.31;;;3.14;100.00
53868;BME280;41577;47.470;19.080;2023-04-07T00:16:50;99964.53;;;3.15;100.00
53868;BME280;41577;47.470;19.080;2023-04-07T00:17:02;99959.25;;;3.15;100.00
53868;BME280;41577;47.470;19.080;2023-04-07T00:17:14;99963.53;;;3.16;100.00
53868;BME280;41577;47.470;19.080;2023-04-07T00:17:27;99965.34;;;3.16;100.00
53868;BME280;41577;47.470;19.080;2023-04-07T00:17:40;99962.72;;;3.16;100.00
53868;BME280;41577;47.470;19.080;2023-04-07T00:17:52;99965.22;;;3.17;100.00
53868;BME280;41577;47.470;19.080;2023-04-07T00:18:05;99966.03;;;3.18;100.00
53868;BME280;41577;47.470;19.080;2023-04-07T00:18:18;99963.41;;;3.18;100.00
53868;BME280;41577;47.470;19.080;2023-04-07T00:18:30;99966.03;;;3.18;100.00
53868;BME280;41577;47.470;19.080;2023-04-07T00:18:43;99964.22;;;3.18;100.00
53868;BME280;41577;47.470;19.080;2023-04-07T00:18:55;99965.06;;;3.19;100.00
53868;BME280;41577;47.470;19.080;2023-04-07T00:19:08;99960.59;;;3.19;100.00
53868;BME280;41577;47.470;19.080;2023-04-07T00:19:21;99961.44;;;3.20;100.00
53868;BME280;41577;47.470;19.080;2023-04-07T00:19:34;99963.91;;;3.21;100.00
53868;BME280;41577;47.470;19.080;2023-04-07T00:19:46;99961.28;;;3.21;100.00
53868;BME280;41577;47.470;19.080;2023-04-07T00:19:59;99962.13;;;3.22;100.00
53868;BME280;41577;47.470;19.080;2023-04-07T00:20:11;99967.41;;;3.22;100.00
53868;BME280;41577;47.470;19.080;2023-04-07T00:20:24;99965.59;;;3.22;100.00
53868;BME280;41577;47.470;19.080;2023-04-07T00:20:37;99963.78;;;3.23;100.00
53868;BME280;41577;47.470;19.080;2023-04-07T00:20:50;99958.50;;;3.23;100.00
53868;BME280;41577;47.470;19.080;2023-04-07T00:21:02;99963.78;;;3.23;100.00
53868;BME280;41577;47.470;19.080;2023-04-07T00:21:14;99953.22;;;3.23;100.00
53868;BME280;41577;47.470;19.080;2023-04-07T00:21:27;99962.97;;;3.22;100.00
53868;BME280;41577;47.470;19.080;2023-04-07T00:21:39;99959.50;;;3.22;100.00
53868;BME280;41577;47.470;19.080;2023-04-07T00:21:52;99968.06;;;3.24;100.00
53868;BME280;41577;47.470;19.080;2023-04-07T00:22:04;99959.50;;;3.22;100.00
53868;BME280;41577;47.470;19.080;2023-04-07T00:22:16;99956.69;;;3.23;100.00
53868;BME280;41577;47.470;19.080;2023-04-07T00:22:29;99961.28;;;3.21;100.00
53868;BME280;41577;47.470;19.080;2023-04-07T00:22:42;99961.16;;;3.23;100.00
53868;BME280;41577;47.470;19.080;2023-04-07T00:22:54;99956.84;;;3.22;100.00
53868;BME280;41577;47.470;19.080;2023-04-07T00:23:06;99956.00;;;3.21;100.00
53868;BME280;41577;47.470;19.080;2023-04-07T00:23:19;99953.38;;;3.21;100.00
53868;BME280;41577;47.470;19.080;2023-04-07T00:23:31;99958.81;;;3.20;100.00
53868;BME280;41577;47.470;19.080;2023-04-07T00:23:43;99956.00;;;3.21;100.00
53868;BME280;41577;47.470;19.080;2023-04-07T00:23:56;99963.91;;;3.21;100.00
53868;BME280;41577;47.470;19.080;2023-04-07T00:24:08;99960.31;;;3.22;100.00
53868;BME280;41577;47.470;19.080;2023-04-07T00:24:22;99956.00;;;3.21;100.00
53868;BME280;41577;47.470;19.080;2023-04-07T00:24:45;99956.00;;;3.21;100.00
53868;BME280;41577;47.470;19.080;2023-04-07T00:24:59;99959.50;;;3.22;100.00
53868;BME280;41577;47.470;19.080;2023-04-07T00:25:11;99956.84;;;3.22;100.00
53868;BME280;41577;47.470;19.080;2023-04-07T00:25:23;99964.78;;;3.22;100.00
53868;BME280;41577;47.470;19.080;2023-04-07T00:25:36;99956.69;;;3.23;100.00
53868;BME280;41577;47.470;19.080;2023-04-07T00:25:48;99961.16;;;3.23;100.00
53868;BME280;41577;47.470;19.080;2023-04-07T00:26:00;99952.41;;;3.22;100.00
53868;BME280;41577;47.470;19.080;2023-04-07T00:26:13;99958.50;;;3.23;100.00
53868;BME280;41577;47.470;19.080;2023-04-07T00:26:28;99956.84;;;3.22;100.00
53868;BME280;41577;47.470;19.080;2023-04-07T00:26:40;99962.13;;;3.22;100.00
53868;BME280;41577;47.470;19.080;2023-04-07T00:26:53;99952.53;;;3.21;100.00
53868;BME280;41577;47.470;19.080;2023-04-07T00:27:05;99954.03;;;3.23;100.00
53868;BME280;41577;47.470;19.080;2023-04-07T00:27:17;99955.03;;;3.22;100.00
53868;BME280;41577;47.470;19.080;2023-04-07T00:27:30;99952.22;;;3.24;100.00
53868;BME280;41577;47.470;19.080;2023-04-07T00:27:42;99954.22;;;3.22;100.00
53868;BME280;41577;47.470;19.080;2023-04-07T00:27:55;99957.50;;;3.24;100.00
53868;BME280;41577;47.470;19.080;2023-04-07T00:28:07;99954.88;;;3.24;100.00
53868;BME280;41577;47.470;19.080;2023-04-07T00:28:19;99954.88;;;3.24;100.00
53868;BME280;41577;47.470;19.080;2023-04-07T00:28:31;99960.16;;;3.24;100.00
53868;BME280;41577;47.470;19.080;2023-04-07T00:28:44;99956.53;;;3.25;100.00
53868;BME280;41577;47.470;19.080;2023-04-07T00:28:56;99953.91;;;3.25;100.00
53868;BME280;41577;47.470;19.080;2023-04-07T00:29:08;99951.28;;;3.25;100.00
53868;BME280;41577;47.470;19.080;2023-04-07T00:29:21;99962.66;;;3.25;100.00
53868;BME280;41577;47.470;19.080;2023-04-07T00:29:33;99953.91;;;3.25;100.00
53868;BME280;41577;47.470;19.080;2023-04-07T00:29:46;99957.38;;;3.25;100.00
53868;BME280;41577;47.470;19.080;2023-04-07T00:29:58;99951.28;;;3.25;100.00
53868;BME280;41577;47.470;19.080;2023-04-07T00:30:11;99949.47;;;3.25;100.00
53868;BME280;41577;47.470;19.080;2023-04-07T00:30:24;99951.13;;;3.26;100.00
53868;BME280;41577;47.470;19.080;2023-04-07T00:30:37;99952.09;;;3.25;100.00
53868;BME280;41577;47.470;19.080;2023-04-07T00:30:50;99954.72;;;3.25;100.00
53868;BME280;41577;47.470;19.080;2023-04-07T00:31:02;99950.28;;;3.26;100.00
53868;BME280;41577;47.470;19.080;2023-04-07T00:31:15;99955.56;;;3.26;100.00
53868;BME280;41577;47.470;19.080;2023-04-07T00:31:27;99954.59;;;3.27;100.00
53868;BME280;41577;47.470;19.080;2023-04-07T00:31:39;99950.28;;;3.26;100.00
53868;BME280;41577;47.470;19.080;2023-04-07T00:31:52;99955.41;;;3.27;100.00
53868;BME280;41577;47.470;19.080;2023-04-07T00:32:04;99951.97;;;3.27;100.00
53868;BME280;41577;47.470;19.080;2023-04-07T00:32:17;99952.91;;;3.26;100.00
53868;BME280;41577;47.470;19.080;2023-04-07T00:32:29;99950.13;;;3.27;100.00
53868;BME280;41577;47.470;19.080;2023-04-07T00:32:44;99957.91;;;3.29;100.00
53868;BME280;41577;47.470;19.080;2023-04-07T00:32:56;99949.31;;;3.27;100.00
53868;BME280;41577;47.470;19.080;2023-04-07T00:33:08;99952.78;;;3.27;100.00
53868;BME280;41577;47.470;19.080;2023-04-07T00:33:21;99951.78;;;3.28;100.00
53868;BME280;41577;47.470;19.080;2023-04-07T00:33:34;99949.81;;;3.30;100.00
53868;BME280;41577;47.470;19.080;2023-04-07T00:33:46;99949.00;;;3.30;100.00
53868;BME280;41577;47.470;19.080;2023-04-07T00:33:58;99952.47;;;3.30;100.00
53868;BME280;41577;47.470;19.080;2023-04-07T00:34:11;99948.03;;;3.31;100.00
53868;BME280;41577;47.470;19.080;2023-04-07T00:34:25;99950.69;;;3.31;100.00
53868;BME280;41577;47.470;19.080;2023-04-07T00:34:37;99951.34;;;3.33;100.00
53868;BME280;41577;47.470;19.080;2023-04-07T00:34:50;99953.00;;;3.34;100.00
53868;BME280;41577;47.470;19.080;2023-04-07T00:35:03;99949.53;;;3.33;100.00
53868;BME280;41577;47.470;19.080;2023-04-07T00:35:16;99948.03;;;3.31;100.00
53868;BME280;41577;47.470;19.080;2023-04-07T00:35:28;99960.94;;;3.34;100.00
53868;BME280;41577;47.470;19.080;2023-04-07T00:35:42;99955.66;;;3.34;100.00
53868;BME280;41577;47.470;19.080;2023-04-07T00:35:55;99954.81;;;3.33;100.00
53868;BME280;41577;47.470;19.080;2023-04-07T00:36:07;99953.00;;;3.34;100.00
53868;BME280;41577;47.470;19.080;2023-04-07T00:36:20;99954.81;;;3.33;100.00
53868;BME280;41577;47.470;19.080;2023-04-07T00:36:33;99952.19;;;3.33;100.00
53868;BME280;41577;47.470;19.080;2023-04-07T00:36:45;99950.50;;;3.32;100.00
53868;BME280;41577;47.470;19.080;2023-04-07T00:36:57;99953.97;;;3.33;100.00
53868;BME280;41577;47.470;19.080;2023-04-07T00:37:09;99955.78;;;3.32;100.00
53868;BME280;41577;47.470;19.080;2023-04-07T00:37:21;99952.31;;;3.32;100.00
53868;BME280;41577;47.470;19.080;2023-04-07T00:37:35;99956.78;;;3.31;100.00
53868;BME280;41577;47.470;19.080;2023-04-07T00:37:47;99949.81;;;3.30;100.00
53868;BME280;41577;47.470;19.080;2023-04-07T00:37:59;99960.25;;;3.32;100.00
53868;BME280;41577;47.470;19.080;2023-04-07T00:38:12;99951.50;;;3.31;100.00
53868;BME280;41577;47.470;19.080;2023-04-07T00:38:24;99954.16;;;3.31;100.00
53868;BME280;41577;47.470;19.080;2023-04-07T00:38:36;99947.19;;;3.30;100.00
53868;BME280;41577;47.470;19.080;2023-04-07T00:38:49;99949.00;;;3.30;100.00
53868;BME280;41577;47.470;19.080;2023-04-07T00:39:02;99948.19;;;3.29;100.00
53868;BME280;41577;47.470;19.080;2023-04-07T00:39:14;99955.28;;;3.29;100.00
53868;BME280;41577;47.470;19.080;2023-04-07T00:39:27;99951.78;;;3.28;100.00
53868;BME280;41577;47.470;19.080;2023-04-07T00:39:39;99952.63;;;3.29;100.00
53868;BME280;41577;47.470;19.080;2023-04-07T00:39:51;99950.97;;;3.28;100.00
53868;BME280;41577;47.470;19.080;2023-04-07T00:40:04;99948.31;;;3.28;100.00
53868;BME280;41577;47.470;19.080;2023-04-07T00:40:16;99950.13;;;3.27;100.00
53868;BME280;41577;47.470;19.080;2023-04-07T00:40:29;99952.63;;;3.29;100.00
53868;BME280;41577;47.470;19.080;2023-04-07T00:40:41;99950.13;;;3.27;100.00
53868;BME280;41577;47.470;19.080;2023-04-07T00:40:56;99954.59;;;3.27;100.00
53868;BME280;41577;47.470;19.080;2023-04-07T00:41:09;99957.22;;;3.27;100.00
53868;BME280;41577;47.470;19.080;2023-04-07T00:41:21;99952.78;;;3.27;100.00
53868;BME280;41577;47.470;19.080;2023-04-07T00:41:34;99955.41;;;3.27;100.00
53868;BME280;41577;47.470;19.080;2023-04-07T00:41:46;99950.97;;;3.28;100.00
53868;BME280;41577;47.470;19.080;2023-04-07T00:41:59;99950.28;;;3.26;100.00
53868;BME280;41577;47.470;19.080;2023-04-07T00:42:13;99952.09;;;3.25;100.00
53868;BME280;41577;47.470;19.080;2023-04-07T00:42:25;99953.78;;;3.26;100.00
53868;BME280;41577;47.470;19.080;2023-04-07T00:42:38;99956.53;;;3.25;100.00
53868;BME280;41577;47.470;19.080;2023-04-07T00:42:52;99952.09;;;3.25;100.00
53868;BME280;41577;47.470;19.080;2023-04-07T00:43:04;99948.50;;;3.26;100.00
53868;BME280;41577;47.470;19.080;2023-04-07T00:43:16;99945.00;;;3.26;100.00
53868;BME280;41577;47.470;19.080;2023-04-07T00:43:29;99946.00;;;3.25;100.00
53868;BME280;41577;47.470;19.080;2023-04-07T00:43:43;99957.38;;;3.25;100.00
53868;BME280;41577;47.470;19.080;2023-04-07T00:43:55;99943.34;;;3.25;100.00
53868;BME280;41577;47.470;19.080;2023-04-07T00:44:07;99952.09;;;3.25;100.00
53868;BME280;41577;47.470;19.080;2023-04-07T00:44:20;99947.63;;;3.26;100.00
53868;BME280;41577;47.470;19.080;2023-04-07T00:44:32;99951.28;;;3.25;100.00
53868;BME280;41577;47.470;19.080;2023-04-07T00:44:44;99946.97;;;3.24;100.00
53868;BME280;41577;47.470;19.080;2023-04-07T00:44:57;99945.16;;;3.24;100.00
53868;BME280;41577;47.470;19.080;2023-04-07T00:45:10;99948.63;;;3.25;100.00
53868;BME280;41577;47.470;19.080;2023-04-07T00:45:24;99949.59;;;3.24;100.00
53868;BME280;41577;47.470;19.080;2023-04-07T00:45:37;99951.41;;;3.23;100.00
53868;BME280;41577;47.470;19.080;2023-04-07T00:45:49;99951.41;;;3.23;100.00
53868;BME280;41577;47.470;19.080;2023-04-07T00:46:02;99947.13;;;3.22;100.00
53868;BME280;41577;47.470;19.080;2023-04-07T00:46:14;99946.31;;;3.22;100.00
53868;BME280;41577;47.470;19.080;2023-04-07T00:46:26;99954.22;;;3.22;100.00
53868;BME280;41577;47.470;19.080;2023-04-07T00:46:40;99953.38;;;3.21;100.00
53868;BME280;41577;47.470;19.080;2023-04-07T00:46:52;99952.53;;;3.21;100.00
53868;BME280;41577;47.470;19.080;2023-04-07T00:47:05;99950.72;;;3.21;100.00
53868;BME280;41577;47.470;19.080;2023-04-07T00:47:17;99945.44;;;3.21;100.00
53868;BME280;41577;47.470;19.080;2023-04-07T00:47:31;99944.63;;;3.21;100.00
53868;BME280;41577;47.470;19.080;2023-04-07T00:47:43;99943.81;;;3.20;100.00
53868;BME280;41577;47.470;19.080;2023-04-07T00:47:56;99952.53;;;3.21;100.00
53868;BME280;41577;47.470;19.080;2023-04-07T00:48:09;99947.25;;;3.21;100.00
53868;BME280;41577;47.470;19.080;2023-04-07T00:48:21;99949.91;;;3.21;100.00
53868;BME280;41577;47.470;19.080;2023-04-07T00:48:34;99952.69;;;3.19;100.00
53868;BME280;41577;47.470;19.080;2023-04-07T00:48:48;99953.53;;;3.20;100.00
53868;BME280;41577;47.470;19.080;2023-04-07T00:49:00;99948.25;;;3.20;100.00
53868;BME280;41577;47.470;19.080;2023-04-07T00:49:12;99950.72;;;3.21;100.00
53868;BME280;41577;47.470;19.080;2023-04-07T00:49:25;99946.44;;;3.20;100.00
53868;BME280;41577;47.470;19.080;2023-04-07T00:49:38;99946.44;;;3.20;100.00
53868;BME280;41577;47.470;19.080;2023-04-07T00:49:50;99949.75;;;3.22;100.00
53868;BME280;41577;47.470;19.080;2023-04-07T00:50:03;99951.41;;;3.23;100.00
53868;BME280;41577;47.470;19.080;2023-04-07T00:50:15;99948.94;;;3.22;100.00
53868;BME280;41577;47.470;19.080;2023-04-07T00:50:28;99946.31;;;3.22;100.00
53868;BME280;41577;47.470;19.080;2023-04-07T00:50:40;99949.91;;;3.21;100.00
53868;BME280;41577;47.470;19.080;2023-04-07T00:50:53;99950.72;;;3.21;100.00
53868;BME280;41577;47.470;19.080;2023-04-07T00:51:06;99951.59;;;3.22;100.00
53868;BME280;41577;47.470;19.080;2023-04-07T00:51:20;99949.91;;;3.21;100.00
53868;BME280;41577;47.470;19.080;2023-04-07T00:51:34;99949.91;;;3.21;100.00
53868;BME280;41577;47.470;19.080;2023-04-07T00:51:47;99954.22;;;3.22;100.00
53868;BME280;41577;47.470;19.080;2023-04-07T00:52:00;99949.91;;;3.21;100.00
53868;BME280;41577;47.470;19.080;2023-04-07T00:52:13;99956.84;;;3.22;100.00
53868;BME280;41577;47.470;19.080;2023-04-07T00:52:26;99951.59;;;3.22;100.00
53868;BME280;41577;47.470;19.080;2023-04-07T00:52:39;99945.44;;;3.21;100.00
53868;BME280;41577;47.470;19.080;2023-04-07T00:52:52;99948.94;;;3.22;100.00
53868;BME280;41577;47.470;19.080;2023-04-07T00:53:05;99947.13;;;3.22;100.00
53868;BME280;41577;47.470;19.080;2023-04-07T00:53:18;99943.66;;;3.22;100.00
53868;BME280;41577;47.470;19.080;2023-04-07T00:53:32;99946.44;;;3.20;100.00
53868;BME280;41577;47.470;19.080;2023-04-07T00:53:44;99950.72;;;3.21;100.00
53868;BME280;41577;47.470;19.080;2023-04-07T00:53:56;99949.91;;;3.21;100.00
53868;BME280;41577;47.470;19.080;2023-04-07T00:54:09;99953.38;;;3.21;100.00
53868;BME280;41577;47.470;19.080;2023-04-07T00:54:23;99945.63;;;3.20;100.00
53868;BME280;41577;47.470;19.080;2023-04-07T00:54:35;99946.31;;;3.22;100.00
53868;BME280;41577;47.470;19.080;2023-04-07T00:54:48;99949.91;;;3.21;100.00
53868;BME280;41577;47.470;19.080;2023-04-07T00:55:01;99947.25;;;3.21;100.00
53868;BME280;41577;47.470;19.080;2023-04-07T00:55:13;99946.31;;;3.22;100.00
53868;BME280;41577;47.470;19.080;2023-04-07T00:55:26;99944.63;;;3.21;100.00
53868;BME280;41577;47.470;19.080;2023-04-07T00:55:39;99941.03;;;3.22;100.00
53868;BME280;41577;47.470;19.080;2023-04-07T00:55:52;99954.22;;;3.22;100.00
53868;BME280;41577;47.470;19.080;2023-04-07T00:56:05;99939.22;;;3.22;100.00
53868;BME280;41577;47.470;19.080;2023-04-07T00:56:17;99946.31;;;3.22;100.00
53868;BME280;41577;47.470;19.080;2023-04-07T00:56:30;99938.53;;;3.20;100.00
53868;BME280;41577;47.470;19.080;2023-04-07T00:56:43;99947.13;;;3.22;100.00
53868;BME280;41577;47.470;19.080;2023-04-07T00:56:56;99941.84;;;3.22;100.00
53868;BME280;41577;47.470;19.080;2023-04-07T00:57:08;99946.81;;;3.25;100.00
53868;BME280;41577;47.470;19.080;2023-04-07T00:57:22;99944.31;;;3.24;100.00
53868;BME280;41577;47.470;19.080;2023-04-07T00:57:34;99946.00;;;3.25;100.00
53868;BME280;41577;47.470;19.080;2023-04-07T00:57:47;99941.53;;;3.25;100.00
53868;BME280;41577;47.470;19.080;2023-04-07T00:57:59;99939.72;;;3.26;100.00
53868;BME280;41577;47.470;19.080;2023-04-07T00:58:11;99941.53;;;3.25;100.00
53868;BME280;41577;47.470;19.080;2023-04-07T00:58:26;99950.28;;;3.26;100.00
53868;BME280;41577;47.470;19.080;2023-04-07T00:58:38;99949.47;;;3.25;100.00
53868;BME280;41577;47.470;19.080;2023-04-07T00:58:51;99942.53;;;3.24;100.00
53868;BME280;41577;47.470;19.080;2023-04-07T00:59:04;99945.84;;;3.26;100.00
53868;BME280;41577;47.470;19.080;2023-04-07T00:59:16;99935.44;;;3.25;100.00
53868;BME280;41577;47.470;19.080;2023-04-07T00:59:29;99943.22;;;3.26;100.00
53868;BME280;41577;47.470;19.080;2023-04-07T00:59:41;99942.22;;;3.27;100.00
53868;BME280;41577;47.470;19.080;2023-04-07T00:59:54;99941.41;;;3.27;100.00
53868;BME280;41577;47.470;19.080;2023-04-07T01:00:07;99944.03;;;3.27;100.00
53868;BME280;41577;47.470;19.080;2023-04-07T01:00:19;99940.41;;;3.28;100.00
53868;BME280;41577;47.470;19.080;2023-04-07T01:00:34;99943.03;;;3.28;100.00
53868;BME280;41577;47.470;19.080;2023-04-07T01:00:50;99941.22;;;3.28;100.00
53868;BME280;41577;47.470;19.080;2023-04-07T01:01:08;99935.13;;;3.28;100.00
53868;BME280;41577;47.470;19.080;2023-04-07T01:01:25;99946.50;;;3.28;100.00
53868;BME280;41577;47.470;19.080;2023-04-07T01:01:43;99946.38;;;3.30;100.00
53868;BME280;41577;47.470;19.080;2023-04-07T01:02:01;99940.25;;;3.29;100.00
53868;BME280;41577;47.470;19.080;2023-04-07T01:02:17;99940.25;;;3.29;100.00
53868;BME280;41577;47.470;19.080;2023-04-07T01:02:36;99944.56;;;3.30;100.00
53868;BME280;41577;47.470;19.080;2023-04-07T01:02:57;99940.13;;;3.31;100.00
53868;BME280;41577;47.470;19.080;2023-04-07T01:03:17;99938.44;;;3.30;100.00
53868;BME280;41577;47.470;19.080;2023-04-07T01:03:33;99943.59;;;3.31;100.00
53868;BME280;41577;47.470;19.080;2023-04-07T01:03:51;99946.22;;;3.31;100.00
53868;BME280;41577;47.470;19.080;2023-04-07T01:04:08;99942.75;;;3.31;100.00
53868;BME280;41577;47.470;19.080;2023-04-07T01:04:26;99938.31;;;3.31;100.00
53868;BME280;41577;47.470;19.080;2023-04-07T01:04:45;99942.75;;;3.31;100.00
53868;BME280;41577;47.470;19.080;2023-04-07T01:05:06;99942.59;;;3.32;100.00
53868;BME280;41577;47.470;19.080;2023-04-07T01:05:25;99944.28;;;3.33;100.00
53868;BME280;41577;47.470;19.080;2023-04-07T01:05:45;99941.63;;;3.33;100.00
53868;BME280;41577;47.470;19.080;2023-04-07T01:06:05;99943.28;;;3.34;100.00
53868;BME280;41577;47.470;19.080;2023-04-07T01:06:23;99940.63;;;3.34;100.00
53868;BME280;41577;47.470;19.080;2023-04-07T01:06:39;99947.06;;;3.32;100.00
53868;BME280;41577;47.470;19.080;2023-04-07T01:07:00;99940.25;;;3.29;100.00
53868;BME280;41577;47.470;19.080;2023-04-07T01:07:23;99942.22;;;3.27;100.00
53868;BME280;41577;47.470;19.080;2023-04-07T01:07:54;99934.31;;;3.27;100.00
53868;BME280;41577;47.470;19.080;2023-04-07T01:08:13;99935.13;;;3.28;100.00
53868;BME280;41577;47.470;19.080;2023-04-07T01:08:32;99938.59;;;3.28;100.00
53868;BME280;41577;47.470;19.080;2023-04-07T01:08:52;99939.59;;;3.27;100.00
53868;BME280;41577;47.470;19.080;2023-04-07T01:09:09;99933.47;;;3.27;100.00
53868;BME280;41577;47.470;19.080;2023-04-07T01:09:25;99940.41;;;3.28;100.00
53868;BME280;41577;47.470;19.080;2023-04-07T01:09:45;99936.13;;;3.27;100.00